createdAt,value
2022-12-23T00:01:48.791Z,33.70
2022-12-23T00:06:56.010Z,31.50
2022-12-23T00:12:20.598Z,31.70
2022-12-23T00:17:27.702Z,32.70
2022-12-23T00:22:52.974Z,33.80
2022-12-23T00:28:02.552Z,27.90
2022-12-23T00:33:09.665Z,32.30
2022-12-23T00:38:17.572Z,36.30
2022-12-23T00:43:24.693Z,37.10
2022-12-23T00:48:49.700Z,35.70
2022-12-23T00:53:56.862Z,46.70
2022-12-23T00:59:03.906Z,36.70
2022-12-23T01:04:32.089Z,40.10
2022-12-23T01:09:39.203Z,30.50
2022-12-23T01:14:46.414Z,28.50
2022-12-23T01:19:53.530Z,30.20
2022-12-23T01:25:00.786Z,28.00
2022-12-23T01:30:10.102Z,27.90
2022-12-23T01:35:17.516Z,30.00
2022-12-23T01:40:24.627Z,26.60
2022-12-23T01:45:33.712Z,31.30
2022-12-23T01:50:45.971Z,25.00
2022-12-23T01:55:59.405Z,25.60
2022-12-23T02:01:24.403Z,23.20
2022-12-23T02:06:52.851Z,20.70
2022-12-23T02:12:27.328Z,25.30
2022-12-23T02:17:38.968Z,28.20
2022-12-23T02:23:09.527Z,23.50
2022-12-23T02:28:44.867Z,30.70
2022-12-23T02:33:59.631Z,20.10
2022-12-23T02:39:10.879Z,23.10
2022-12-23T02:44:26.790Z,20.60
2022-12-23T02:49:37.992Z,24.90
2022-12-23T02:54:51.602Z,20.20
2022-12-23T03:00:01.405Z,23.30
2022-12-23T03:05:23.099Z,21.00
2022-12-23T03:10:42.559Z,23.90
2022-12-23T03:15:55.085Z,29.80
2022-12-23T03:21:08.114Z,22.10
2022-12-23T03:26:20.096Z,20.80
2022-12-23T03:31:30.498Z,20.80
2022-12-23T03:36:43.163Z,26.60
2022-12-23T03:41:54.425Z,24.10
2022-12-23T03:47:08.438Z,30.30
2022-12-23T03:52:21.621Z,27.20
2022-12-23T03:57:36.222Z,23.70
2022-12-23T04:02:55.074Z,24.90
2022-12-23T04:08:06.478Z,20.60
2022-12-23T04:13:13.673Z,25.30
2022-12-23T04:18:20.775Z,22.80
2022-12-23T04:23:27.837Z,31.20
2022-12-23T04:28:35.097Z,22.90
2022-12-23T04:33:42.342Z,19.10
2022-12-23T04:38:49.519Z,23.80
2022-12-23T04:43:56.628Z,23.00
2022-12-23T04:49:03.855Z,40.70
2022-12-23T04:54:10.941Z,26.70
2022-12-23T04:59:18.144Z,28.40
2022-12-23T05:04:25.351Z,31.30
2022-12-23T05:09:32.472Z,28.00
2022-12-23T05:14:39.708Z,37.90
2022-12-23T05:19:46.821Z,40.50
2022-12-23T05:24:53.912Z,41.40
2022-12-23T05:30:01.108Z,38.90
2022-12-23T05:35:09.763Z,38.70
2022-12-23T05:40:23.263Z,50.60
2022-12-23T05:45:32.137Z,43.50
2022-12-23T05:50:40.185Z,49.20
2022-12-23T06:00:52.886Z,41.40
2022-12-23T06:06:00.052Z,42.20
2022-12-23T06:11:08.677Z,44.20
2022-12-23T06:16:16.004Z,45.10
2022-12-23T06:21:23.520Z,49.70
2022-12-23T06:26:31.239Z,45.10
2022-12-23T06:31:38.619Z,43.50
2022-12-23T06:36:45.959Z,41.20
2022-12-23T06:41:53.260Z,47.10
2022-12-23T06:47:00.361Z,46.90
2022-12-23T06:52:08.481Z,58.20
2022-12-23T06:57:15.686Z,59.10
2022-12-23T07:02:22.915Z,57.60
2022-12-23T07:07:32.336Z,51.10
2022-12-23T07:12:40.992Z,55.30
2022-12-23T07:17:50.674Z,52.20
2022-12-23T07:22:59.492Z,63.90
2022-12-23T07:28:08.103Z,68.70
2022-12-23T07:33:15.403Z,56.80
2022-12-23T07:38:22.621Z,61.80
2022-12-23T07:43:29.755Z,71.70
2022-12-23T07:48:37.247Z,71.10
2022-12-23T07:53:44.511Z,68.80
2022-12-23T07:58:53.025Z,70.90
2022-12-23T08:04:00.395Z,60.00
2022-12-23T08:09:09.629Z,60.60
2022-12-23T08:14:16.845Z,58.20
2022-12-23T08:19:24.031Z,55.40
2022-12-23T08:24:31.193Z,65.70
2022-12-23T08:29:38.330Z,57.00
2022-12-23T08:34:46.052Z,58.60
2022-12-23T08:39:53.270Z,41.80
2022-12-23T08:45:01.183Z,49.20
2022-12-23T08:50:12.125Z,46.30
2022-12-23T08:55:19.356Z,54.00
2022-12-23T09:00:26.674Z,52.10
2022-12-23T09:05:34.222Z,52.20
2022-12-23T09:10:45.531Z,53.00
2022-12-23T09:15:53.079Z,46.70
2022-12-23T09:21:04.088Z,46.30
2022-12-23T09:26:12.243Z,47.70
2022-12-23T09:31:22.647Z,49.30
2022-12-23T09:36:30.623Z,48.70
2022-12-23T09:41:50.125Z,35.90
2022-12-23T09:47:02.134Z,47.10
2022-12-23T09:52:15.096Z,44.10
2022-12-23T09:57:27.762Z,48.70
2022-12-23T10:02:48.657Z,55.50
2022-12-23T10:08:00.276Z,61.00
2022-12-23T10:13:21.017Z,50.10
2022-12-23T10:18:36.711Z,49.70
2022-12-23T10:24:08.514Z,52.10
2022-12-23T10:29:21.216Z,53.60
2022-12-23T10:34:38.757Z,50.30
2022-12-23T10:39:52.755Z,60.10
2022-12-23T10:45:26.216Z,48.30
2022-12-23T10:50:55.526Z,47.50
2022-12-23T10:56:04.823Z,56.90
2022-12-23T11:01:23.819Z,48.30
2022-12-23T11:06:37.575Z,56.40
2022-12-23T11:12:05.927Z,51.20
2022-12-23T11:17:23.991Z,57.60
2022-12-23T11:22:31.290Z,63.90
2022-12-23T11:27:38.499Z,53.40
2022-12-23T11:32:46.352Z,53.10
2022-12-23T11:37:53.832Z,49.80
2022-12-23T11:43:04.155Z,49.40
2022-12-23T11:48:31.031Z,49.40
2022-12-23T11:53:43.750Z,56.40
2022-12-23T11:58:55.487Z,51.40
2022-12-23T12:04:06.477Z,46.90
2022-12-23T12:09:15.704Z,41.70
2022-12-23T12:14:31.255Z,52.20
2022-12-23T12:19:44.924Z,40.00
2022-12-23T12:24:56.834Z,42.00
2022-12-23T12:30:08.957Z,36.30
2022-12-23T12:35:43.896Z,37.00
2022-12-23T12:40:55.159Z,39.90
2022-12-23T12:46:24.203Z,37.80
2022-12-23T12:51:48.128Z,37.10
2022-12-23T12:56:57.909Z,39.90
2022-12-23T13:02:29.743Z,38.10
2022-12-23T13:07:46.212Z,40.70
2022-12-23T13:13:02.745Z,46.60
2022-12-23T13:18:24.967Z,42.10
2022-12-23T13:23:45.222Z,48.30
2022-12-23T13:29:03.075Z,49.20
2022-12-23T13:34:26.132Z,48.70
2022-12-23T13:39:44.659Z,46.10
2022-12-23T13:44:52.304Z,45.70
2022-12-23T13:50:09.379Z,47.60
2022-12-23T13:55:33.873Z,58.50
2022-12-23T14:00:41.281Z,53.10
2022-12-23T14:11:00.848Z,49.50
2022-12-23T14:16:33.037Z,53.60
2022-12-23T14:21:52.084Z,52.40
2022-12-23T14:27:22.038Z,62.40
2022-12-23T14:32:37.399Z,44.70
2022-12-23T14:37:44.698Z,41.00
2022-12-23T14:43:11.965Z,56.60
2022-12-23T14:49:09.622Z,46.40
2022-12-23T14:54:38.654Z,48.50
2022-12-23T14:59:52.110Z,50.60
2022-12-23T15:05:01.987Z,39.70
2022-12-23T15:10:17.451Z,49.10
2022-12-23T15:15:27.025Z,62.00
2022-12-23T15:20:35.424Z,55.10
2022-12-23T15:25:47.536Z,47.10
2022-12-23T15:30:57.652Z,55.40
2022-12-23T15:36:07.015Z,66.60
2022-12-23T15:41:19.798Z,50.20
2022-12-23T15:46:30.434Z,54.80
2022-12-23T15:57:09.017Z,55.10
2022-12-23T16:07:50.106Z,48.20
2022-12-23T16:13:00.120Z,50.30
2022-12-23T16:18:23.258Z,62.70
2022-12-23T16:23:35.949Z,54.20
2022-12-23T16:28:49.602Z,48.50
2022-12-23T16:33:59.898Z,45.90
2022-12-23T16:39:21.757Z,46.30
2022-12-23T16:44:29.022Z,48.00
2022-12-23T16:49:37.433Z,53.30
2022-12-23T16:54:44.680Z,50.80
2022-12-23T16:59:52.181Z,56.60
2022-12-23T17:05:00.446Z,58.40
2022-12-23T17:10:10.312Z,50.20
2022-12-23T17:15:23.419Z,59.90
2022-12-23T17:20:31.839Z,59.80
2022-12-23T17:25:39.247Z,62.70
2022-12-23T17:30:46.846Z,72.90
2022-12-23T17:35:56.059Z,62.70
2022-12-23T17:41:04.489Z,62.50
2022-12-23T17:46:16.524Z,66.30
2022-12-23T17:51:26.533Z,60.60
2022-12-23T17:56:34.078Z,66.40
2022-12-23T18:01:41.446Z,71.60
2022-12-23T18:06:48.995Z,57.30
2022-12-23T18:11:56.646Z,61.70
2022-12-23T18:17:04.202Z,62.30
2022-12-23T18:22:19.688Z,73.30
2022-12-23T18:27:27.099Z,66.00
2022-12-23T18:32:35.824Z,70.90
2022-12-23T18:37:43.222Z,74.40
2022-12-23T18:42:53.791Z,63.70
2022-12-23T18:48:14.659Z,71.00
2022-12-23T18:53:25.382Z,70.20
2022-12-23T18:58:32.974Z,67.30
2022-12-23T19:03:40.361Z,68.10
2022-12-23T19:08:55.757Z,65.70
2022-12-23T19:14:09.433Z,59.00
2022-12-23T19:19:16.753Z,65.90
2022-12-23T19:24:24.114Z,76.90
2022-12-23T19:29:31.472Z,61.60
2022-12-23T19:34:38.823Z,64.70
2022-12-23T19:39:46.177Z,64.50
2022-12-23T19:44:53.349Z,96.30
2022-12-23T19:50:02.853Z,61.10
2022-12-23T19:55:13.245Z,61.70
2022-12-23T20:00:20.924Z,56.30
2022-12-23T20:05:52.127Z,64.50
2022-12-23T20:12:11.207Z,57.00
2022-12-23T20:17:30.037Z,51.00
2022-12-23T20:22:54.536Z,52.90
2022-12-23T20:28:08.950Z,53.60
2022-12-23T20:59:17.290Z,56.10
2022-12-23T21:06:55.151Z,53.30
2022-12-23T21:12:44.191Z,65.60
2022-12-23T21:18:02.337Z,68.70
2022-12-23T21:23:39.681Z,85.00
2022-12-23T21:28:56.019Z,87.00
2022-12-23T21:35:14.466Z,80.50
2022-12-23T21:41:14.144Z,69.80
2022-12-23T21:46:26.891Z,72.40
2022-12-23T21:51:40.676Z,66.10
2022-12-23T21:56:53.332Z,73.80
2022-12-23T22:02:06.838Z,58.40
2022-12-23T22:08:20.585Z,51.30
2022-12-23T22:14:02.002Z,61.30
2022-12-23T22:40:25.982Z,55.60
2022-12-23T22:46:02.127Z,50.60
2022-12-23T22:51:14.932Z,53.90
2022-12-23T22:56:26.332Z,57.00
2022-12-23T23:01:46.473Z,55.80
2022-12-23T23:06:54.786Z,40.30
2022-12-23T23:12:02.505Z,49.40
2022-12-23T23:17:09.624Z,47.60
2022-12-23T23:22:16.799Z,60.60
2022-12-23T23:27:23.995Z,62.10
2022-12-23T23:32:31.482Z,48.70
2022-12-23T23:37:38.816Z,43.00
2022-12-23T23:42:46.064Z,40.20
2022-12-23T23:47:53.524Z,49.40
2022-12-23T23:53:00.856Z,43.40
2022-12-23T23:58:09.170Z,45.60
